sensor_id;sensor_type;location;lat;lon;timestamp;temperature;humidity
8002;DHT22;4046;48.774;8.732;2024-01-30T00:01:54;22.50;63.00
8002;DHT22;4046;48.774;8.732;2024-01-30T00:04:38;22.50;63.00
8002;DHT22;4046;48.774;8.732;2024-01-30T00:11:26;22.50;63.00
8002;DHT22;4046;48.774;8.732;2024-01-30T00:14:14;22.60;63.10
8002;DHT22;4046;48.774;8.732;2024-01-30T00:16:40;22.50;63.00
8002;DHT22;4046;48.774;8.732;2024-01-30T00:22:33;22.50;63.10
8002;DHT22;4046;48.774;8.732;2024-01-30T00:25:40;22.50;63.00
8002;DHT22;4046;48.774;8.732;2024-01-30T00:28:28;22.50;63.10
8002;DHT22;4046;48.774;8.732;2024-01-30T00:33:51;22.50;63.10
8002;DHT22;4046;48.774;8.732;2024-01-30T00:36:16;22.50;63.10
8002;DHT22;4046;48.774;8.732;2024-01-30T00:39:21;22.60;63.20
8002;DHT22;4046;48.774;8.732;2024-01-30T00:45:54;22.50;63.00
8002;DHT22;4046;48.774;8.732;2024-01-30T00:48:29;22.50;63.10
8002;DHT22;4046;48.774;8.732;2024-01-30T00:50:55;22.50;63.00
8002;DHT22;4046;48.774;8.732;2024-01-30T00:54:10;22.50;63.00
8002;DHT22;4046;48.774;8.732;2024-01-30T01:00:54;22.50;63.00
8002;DHT22;4046;48.774;8.732;2024-01-30T01:10:31;22.50;63.10
8002;DHT22;4046;48.774;8.732;2024-01-30T01:13:25;22.50;63.10
8002;DHT22;4046;48.774;8.732;2024-01-30T01:16:20;22.50;63.10
8002;DHT22;4046;48.774;8.732;2024-01-30T01:22:30;22.50;63.10
8002;DHT22;4046;48.774;8.732;2024-01-30T01:32:05;22.50;63.10
8002;DHT22;4046;48.774;8.732;2024-01-30T01:37:51;22.50;63.10
8002;DHT22;4046;48.774;8.732;2024-01-30T01:44:40;22.50;63.20
8002;DHT22;4046;48.774;8.732;2024-01-30T01:47:31;22.50;63.10
8002;DHT22;4046;48.774;8.732;2024-01-30T01:50:40;22.50;63.20
8002;DHT22;4046;48.774;8.732;2024-01-30T01:53:09;22.50;63.20
8002;DHT22;4046;48.774;8.732;2024-01-30T01:59:15;22.50;63.10
8002;DHT22;4046;48.774;8.732;2024-01-30T02:02:40;22.50;63.10
8002;DHT22;4046;48.774;8.732;2024-01-30T02:05:08;22.50;63.10
8002;DHT22;4046;48.774;8.732;2024-01-30T02:07:33;22.50;63.10
8002;DHT22;4046;48.774;8.732;2024-01-30T02:10:09;22.50;63.10
8002;DHT22;4046;48.774;8.732;2024-01-30T02:12:54;22.50;63.10
8002;DHT22;4046;48.774;8.732;2024-01-30T02:15:42;22.60;63.10
8002;DHT22;4046;48.774;8.732;2024-01-30T02:18:48;22.50;63.00
8002;DHT22;4046;48.774;8.732;2024-01-30T02:21:15;22.50;63.10
8002;DHT22;4046;48.774;8.732;2024-01-30T02:24:32;22.50;63.10
8002;DHT22;4046;48.774;8.732;2024-01-30T02:26:57;22.50;63.00
8002;DHT22;4046;48.774;8.732;2024-01-30T02:29:41;22.50;63.10
8002;DHT22;4046;48.774;8.732;2024-01-30T02:32:15;22.50;63.10
8002;DHT22;4046;48.774;8.732;2024-01-30T02:35:14;22.50;63.10
8002;DHT22;4046;48.774;8.732;2024-01-30T02:44:05;22.50;63.00
8002;DHT22;4046;48.774;8.732;2024-01-30T02:50:30;22.50;63.10
8002;DHT22;4046;48.774;8.732;2024-01-30T03:00:25;22.40;63.00
8002;DHT22;4046;48.774;8.732;2024-01-30T03:02:51;22.40;63.00
8002;DHT22;4046;48.774;8.732;2024-01-30T03:05:17;22.40;63.00
8002;DHT22;4046;48.774;8.732;2024-01-30T03:08:04;22.50;63.10
8002;DHT22;4046;48.774;8.732;2024-01-30T03:10:53;22.50;63.10
8002;DHT22;4046;48.774;8.732;2024-01-30T03:13:40;22.40;63.00
8002;DHT22;4046;48.774;8.732;2024-01-30T03:20:31;22.40;63.00
8002;DHT22;4046;48.774;8.732;2024-01-30T03:23:03;22.40;63.00
8002;DHT22;4046;48.774;8.732;2024-01-30T03:25:56;22.40;63.00
8002;DHT22;4046;48.774;8.732;2024-01-30T03:29:07;22.40;63.00
8002;DHT22;4046;48.774;8.732;2024-01-30T03:33:26;22.40;63.00
8002;DHT22;4046;48.774;8.732;2024-01-30T03:36:49;22.40;63.00
8002;DHT22;4046;48.774;8.732;2024-01-30T03:38:59;22.40;63.10
8002;DHT22;4046;48.774;8.732;2024-01-30T03:41:24;22.40;63.00
8002;DHT22;4046;48.774;8.732;2024-01-30T03:43:59;22.40;63.10
8002;DHT22;4046;48.774;8.732;2024-01-30T03:47:36;22.40;63.10
8002;DHT22;4046;48.774;8.732;2024-01-30T03:50:38;22.40;63.10
8002;DHT22;4046;48.774;8.732;2024-01-30T03:53:04;22.40;63.00
8002;DHT22;4046;48.774;8.732;2024-01-30T03:55:29;22.40;63.00
8002;DHT22;4046;48.774;8.732;2024-01-30T03:57:55;22.40;63.00
8002;DHT22;4046;48.774;8.732;2024-01-30T04:07:07;22.40;63.00
8002;DHT22;4046;48.774;8.732;2024-01-30T04:09:33;22.50;63.10
8002;DHT22;4046;48.774;8.732;2024-01-30T04:12:35;22.40;63.00
8002;DHT22;4046;48.774;8.732;2024-01-30T04:15:07;22.20;62.80
8002;DHT22;4046;48.774;8.732;2024-01-30T04:21:29;22.40;63.00
8002;DHT22;4046;48.774;8.732;2024-01-30T04:23:48;22.40;63.00
8002;DHT22;4046;48.774;8.732;2024-01-30T04:26:59;22.40;63.00
8002;DHT22;4046;48.774;8.732;2024-01-30T04:29:44;22.40;63.00
8002;DHT22;4046;48.774;8.732;2024-01-30T04:33:15;22.40;63.00
8002;DHT22;4046;48.774;8.732;2024-01-30T04:35:44;22.40;63.00
8002;DHT22;4046;48.774;8.732;2024-01-30T04:45:27;22.40;63.00
8002;DHT22;4046;48.774;8.732;2024-01-30T05:01:35;22.40;63.00
8002;DHT22;4046;48.774;8.732;2024-01-30T05:07:18;22.40;63.00
8002;DHT22;4046;48.774;8.732;2024-01-30T05:10:08;22.40;63.00
8002;DHT22;4046;48.774;8.732;2024-01-30T05:13:03;22.40;63.10
8002;DHT22;4046;48.774;8.732;2024-01-30T05:15:29;22.40;63.00
8002;DHT22;4046;48.774;8.732;2024-01-30T05:21:30;22.40;63.00
8002;DHT22;4046;48.774;8.732;2024-01-30T05:25:11;22.40;63.00
8002;DHT22;4046;48.774;8.732;2024-01-30T05:27:53;22.50;63.00
8002;DHT22;4046;48.774;8.732;2024-01-30T05:30:42;22.40;63.00
8002;DHT22;4046;48.774;8.732;2024-01-30T05:33:24;22.40;63.00
8002;DHT22;4046;48.774;8.732;2024-01-30T05:36:38;22.40;63.00
8002;DHT22;4046;48.774;8.732;2024-01-30T05:39:03;22.40;63.00
8002;DHT22;4046;48.774;8.732;2024-01-30T05:41:29;22.40;62.90
8002;DHT22;4046;48.774;8.732;2024-01-30T05:47:36;22.40;62.90
8002;DHT22;4046;48.774;8.732;2024-01-30T05:50:40;22.40;62.90
8002;DHT22;4046;48.774;8.732;2024-01-30T05:53:50;22.40;62.90
8002;DHT22;4046;48.774;8.732;2024-01-30T05:56:22;22.40;63.00
8002;DHT22;4046;48.774;8.732;2024-01-30T05:59:30;22.40;63.00
8002;DHT22;4046;48.774;8.732;2024-01-30T06:02:46;22.40;63.00
8002;DHT22;4046;48.774;8.732;2024-01-30T06:05:27;22.40;63.00
8002;DHT22;4046;48.774;8.732;2024-01-30T06:08:36;22.40;63.00
8002;DHT22;4046;48.774;8.732;2024-01-30T06:11:15;22.40;63.00
8002;DHT22;4046;48.774;8.732;2024-01-30T06:13:40;22.70;63.20
8002;DHT22;4046;48.774;8.732;2024-01-30T06:16:28;22.40;63.00
8002;DHT22;4046;48.774;8.732;2024-01-30T06:19:34;22.40;63.00
8002;DHT22;4046;48.774;8.732;2024-01-30T06:25:41;22.40;62.90
8002;DHT22;4046;48.774;8.732;2024-01-30T06:28:57;22.40;63.00
8002;DHT22;4046;48.774;8.732;2024-01-30T06:35:07;22.40;62.90
8002;DHT22;4046;48.774;8.732;2024-01-30T06:37:34;22.40;62.90
8002;DHT22;4046;48.774;8.732;2024-01-30T06:40:12;22.40;62.90
8002;DHT22;4046;48.774;8.732;2024-01-30T06:42:59;22.40;63.00
8002;DHT22;4046;48.774;8.732;2024-01-30T06:45:39;22.40;62.80
8002;DHT22;4046;48.774;8.732;2024-01-30T06:49:01;22.40;62.80
8002;DHT22;4046;48.774;8.732;2024-01-30T06:55:30;22.40;62.80
8002;DHT22;4046;48.774;8.732;2024-01-30T06:59:09;22.40;62.80
8002;DHT22;4046;48.774;8.732;2024-01-30T07:01:35;22.40;62.90
8002;DHT22;4046;48.774;8.732;2024-01-30T07:04:01;22.40;62.90
8002;DHT22;4046;48.774;8.732;2024-01-30T07:07:06;22.40;62.90
8002;DHT22;4046;48.774;8.732;2024-01-30T07:09:43;22.40;62.90
8002;DHT22;4046;48.774;8.732;2024-01-30T07:15:43;22.40;63.00
8002;DHT22;4046;48.774;8.732;2024-01-30T07:18:09;22.40;62.80
8002;DHT22;4046;48.774;8.732;2024-01-30T07:27:50;22.40;62.80
8002;DHT22;4046;48.774;8.732;2024-01-30T07:30:15;22.40;62.90
8002;DHT22;4046;48.774;8.732;2024-01-30T07:32:42;22.70;63.10
8002;DHT22;4046;48.774;8.732;2024-01-30T07:35:12;22.40;62.80
8002;DHT22;4046;48.774;8.732;2024-01-30T07:37:38;22.40;62.70
8002;DHT22;4046;48.774;8.732;2024-01-30T07:43:44;22.40;62.70
8002;DHT22;4046;48.774;8.732;2024-01-30T07:46:47;22.40;62.70
8002;DHT22;4046;48.774;8.732;2024-01-30T07:49:42;22.40;62.60
8002;DHT22;4046;48.774;8.732;2024-01-30T07:55:47;22.40;62.60
8002;DHT22;4046;48.774;8.732;2024-01-30T07:58:13;22.40;62.60
8002;DHT22;4046;48.774;8.732;2024-01-30T08:00:45;22.40;62.60
8002;DHT22;4046;48.774;8.732;2024-01-30T08:04:02;22.40;62.60
8002;DHT22;4046;48.774;8.732;2024-01-30T08:07:11;22.40;62.60
8002;DHT22;4046;48.774;8.732;2024-01-30T08:09:37;22.40;62.60
8002;DHT22;4046;48.774;8.732;2024-01-30T08:12:03;22.40;62.60
8002;DHT22;4046;48.774;8.732;2024-01-30T08:14:38;22.40;62.50
8002;DHT22;4046;48.774;8.732;2024-01-30T08:17:47;22.10;62.10
8002;DHT22;4046;48.774;8.732;2024-01-30T08:20:13;22.50;62.60
8002;DHT22;4046;48.774;8.732;2024-01-30T08:23:27;22.40;62.50
8002;DHT22;4046;48.774;8.732;2024-01-30T08:25:43;22.50;62.60
8002;DHT22;4046;48.774;8.732;2024-01-30T08:29:25;22.50;62.50
8002;DHT22;4046;48.774;8.732;2024-01-30T08:35:20;22.50;62.40
8002;DHT22;4046;48.774;8.732;2024-01-30T08:37:45;22.40;62.30
8002;DHT22;4046;48.774;8.732;2024-01-30T08:49:59;22.60;62.40
8002;DHT22;4046;48.774;8.732;2024-01-30T08:52:46;22.60;62.30
8002;DHT22;4046;48.774;8.732;2024-01-30T08:55:59;22.70;62.30
8002;DHT22;4046;48.774;8.732;2024-01-30T08:59:07;22.70;62.30
8002;DHT22;4046;48.774;8.732;2024-01-30T09:01:53;22.70;62.20
8002;DHT22;4046;48.774;8.732;2024-01-30T09:04:27;22.70;62.30
8002;DHT22;4046;48.774;8.732;2024-01-30T09:13:56;22.60;62.20
8002;DHT22;4046;48.774;8.732;2024-01-30T09:24:15;22.50;62.30
8002;DHT22;4046;48.774;8.732;2024-01-30T09:27:46;22.40;62.30
8002;DHT22;4046;48.774;8.732;2024-01-30T09:30:12;22.30;62.40
8002;DHT22;4046;48.774;8.732;2024-01-30T09:32:40;22.30;62.50
8002;DHT22;4046;48.774;8.732;2024-01-30T09:35:32;21.90;62.10
8002;DHT22;4046;48.774;8.732;2024-01-30T09:38:09;22.30;62.50
8002;DHT22;4046;48.774;8.732;2024-01-30T09:40:36;21.90;62.10
8002;DHT22;4046;48.774;8.732;2024-01-30T09:46:49;22.20;62.40
8002;DHT22;4046;48.774;8.732;2024-01-30T09:49:48;22.20;62.40
8002;DHT22;4046;48.774;8.732;2024-01-30T09:55:45;22.20;62.40
8002;DHT22;4046;48.774;8.732;2024-01-30T09:58:13;22.10;62.40
8002;DHT22;4046;48.774;8.732;2024-01-30T10:00:39;22.10;62.40
8002;DHT22;4046;48.774;8.732;2024-01-30T10:10:38;22.10;62.30
8002;DHT22;4046;48.774;8.732;2024-01-30T10:13:52;22.10;62.30
8002;DHT22;4046;48.774;8.732;2024-01-30T10:16:18;21.80;61.90
8002;DHT22;4046;48.774;8.732;2024-01-30T10:18:44;22.30;62.30
8002;DHT22;4046;48.774;8.732;2024-01-30T10:21:40;22.30;62.10
8002;DHT22;4046;48.774;8.732;2024-01-30T10:24:26;22.40;62.10
8002;DHT22;4046;48.774;8.732;2024-01-30T10:27:11;22.60;61.80
8002;DHT22;4046;48.774;8.732;2024-01-30T10:29:53;22.70;61.50
8002;DHT22;4046;48.774;8.732;2024-01-30T10:32:19;22.90;61.30
8002;DHT22;4046;48.774;8.732;2024-01-30T10:35:07;23.00;61.00
8002;DHT22;4046;48.774;8.732;2024-01-30T10:38:12;23.00;60.80
8002;DHT22;4046;48.774;8.732;2024-01-30T10:41:43;23.10;60.90
8002;DHT22;4046;48.774;8.732;2024-01-30T10:45:37;23.00;60.90
8002;DHT22;4046;48.774;8.732;2024-01-30T10:48:18;22.80;61.30
8002;DHT22;4046;48.774;8.732;2024-01-30T10:54:22;22.50;61.60
8002;DHT22;4046;48.774;8.732;2024-01-30T10:57:15;22.40;61.80
8002;DHT22;4046;48.774;8.732;2024-01-30T11:00:14;22.40;61.90
8002;DHT22;4046;48.774;8.732;2024-01-30T11:03:59;22.30;61.90
8002;DHT22;4046;48.774;8.732;2024-01-30T11:06:13;22.30;62.00
8002;DHT22;4046;48.774;8.732;2024-01-30T11:09:11;22.20;62.00
8002;DHT22;4046;48.774;8.732;2024-01-30T11:18:26;22.30;61.90
8002;DHT22;4046;48.774;8.732;2024-01-30T11:21:05;22.30;62.00
8002;DHT22;4046;48.774;8.732;2024-01-30T11:23:58;22.20;62.00
8002;DHT22;4046;48.774;8.732;2024-01-30T11:31:07;22.20;62.10
8002;DHT22;4046;48.774;8.732;2024-01-30T11:33:53;22.30;62.10
8002;DHT22;4046;48.774;8.732;2024-01-30T11:36:31;22.20;62.00
8002;DHT22;4046;48.774;8.732;2024-01-30T11:39:01;22.20;62.00
8002;DHT22;4046;48.774;8.732;2024-01-30T11:41:31;22.20;61.90
8002;DHT22;4046;48.774;8.732;2024-01-30T11:44:03;22.20;62.70
8002;DHT22;4046;48.774;8.732;2024-01-30T11:46:50;22.20;61.90
8002;DHT22;4046;48.774;8.732;2024-01-30T11:49:19;22.30;61.90
8002;DHT22;4046;48.774;8.732;2024-01-30T11:51:54;22.30;61.80
8002;DHT22;4046;48.774;8.732;2024-01-30T11:54:27;22.40;61.80
8002;DHT22;4046;48.774;8.732;2024-01-30T11:56:59;22.40;61.60
8002;DHT22;4046;48.774;8.732;2024-01-30T12:07:00;23.00;60.70
8002;DHT22;4046;48.774;8.732;2024-01-30T12:09:26;23.00;60.70
8002;DHT22;4046;48.774;8.732;2024-01-30T12:11:56;23.10;60.60
8002;DHT22;4046;48.774;8.732;2024-01-30T12:14:52;23.20;60.50
8002;DHT22;4046;48.774;8.732;2024-01-30T12:17:40;23.20;60.50
8002;DHT22;4046;48.774;8.732;2024-01-30T12:20:24;23.10;60.60
8002;DHT22;4046;48.774;8.732;2024-01-30T12:23:02;23.00;60.80
8002;DHT22;4046;48.774;8.732;2024-01-30T12:25:45;23.00;60.80
8002;DHT22;4046;48.774;8.732;2024-01-30T12:28:30;23.10;60.70
8002;DHT22;4046;48.774;8.732;2024-01-30T12:31:05;23.30;60.10
8002;DHT22;4046;48.774;8.732;2024-01-30T12:34:01;23.40;60.00
8002;DHT22;4046;48.774;8.732;2024-01-30T12:36:29;23.30;60.30
8002;DHT22;4046;48.774;8.732;2024-01-30T12:42:48;23.20;60.40
8002;DHT22;4046;48.774;8.732;2024-01-30T12:45:18;23.10;60.70
8002;DHT22;4046;48.774;8.732;2024-01-30T12:48:40;23.00;60.80
8002;DHT22;4046;48.774;8.732;2024-01-30T12:51:37;23.00;60.80
8002;DHT22;4046;48.774;8.732;2024-01-30T12:54:55;22.90;61.00
8002;DHT22;4046;48.774;8.732;2024-01-30T12:57:21;22.90;61.10
8002;DHT22;4046;48.774;8.732;2024-01-30T13:03:35;22.80;61.20
8002;DHT22;4046;48.774;8.732;2024-01-30T13:06:29;22.70;61.30
8002;DHT22;4046;48.774;8.732;2024-01-30T13:08:55;22.70;61.30
8002;DHT22;4046;48.774;8.732;2024-01-30T13:12:09;22.60;61.30
8002;DHT22;4046;48.774;8.732;2024-01-30T13:14:17;22.60;61.50
8002;DHT22;4046;48.774;8.732;2024-01-30T13:17:04;22.60;61.50
8002;DHT22;4046;48.774;8.732;2024-01-30T13:19:33;22.60;61.60
8002;DHT22;4046;48.774;8.732;2024-01-30T13:22:08;22.50;61.50
8002;DHT22;4046;48.774;8.732;2024-01-30T13:24:34;22.50;61.60
8002;DHT22;4046;48.774;8.732;2024-01-30T13:27:09;22.50;61.60
8002;DHT22;4046;48.774;8.732;2024-01-30T13:30:21;22.50;61.60
8002;DHT22;4046;48.774;8.732;2024-01-30T13:32:50;22.40;61.60
8002;DHT22;4046;48.774;8.732;2024-01-30T13:35:16;22.40;61.80
8002;DHT22;4046;48.774;8.732;2024-01-30T13:37:51;22.50;62.00
8002;DHT22;4046;48.774;8.732;2024-01-30T13:40:23;22.30;61.80
8002;DHT22;4046;48.774;8.732;2024-01-30T13:42:53;22.30;61.80
8002;DHT22;4046;48.774;8.732;2024-01-30T13:45:29;22.30;61.80
8002;DHT22;4046;48.774;8.732;2024-01-30T13:48:31;22.30;61.90
8002;DHT22;4046;48.774;8.732;2024-01-30T13:50:57;22.30;62.00
8002;DHT22;4046;48.774;8.732;2024-01-30T13:53:35;22.20;61.90
8002;DHT22;4046;48.774;8.732;2024-01-30T13:56:13;22.30;62.00
8002;DHT22;4046;48.774;8.732;2024-01-30T13:58:39;22.20;62.00
8002;DHT22;4046;48.774;8.732;2024-01-30T14:01:08;22.20;62.00
8002;DHT22;4046;48.774;8.732;2024-01-30T14:03:59;22.20;62.00
8002;DHT22;4046;48.774;8.732;2024-01-30T14:06:25;22.20;62.10
8002;DHT22;4046;48.774;8.732;2024-01-30T14:08:51;22.20;62.20
8002;DHT22;4046;48.774;8.732;2024-01-30T14:11:17;22.20;62.10
8002;DHT22;4046;48.774;8.732;2024-01-30T14:13:43;22.20;62.10
8002;DHT22;4046;48.774;8.732;2024-01-30T14:16:33;22.20;62.20
8002;DHT22;4046;48.774;8.732;2024-01-30T14:18:59;22.10;62.10
8002;DHT22;4046;48.774;8.732;2024-01-30T14:22:00;22.10;62.90
8002;DHT22;4046;48.774;8.732;2024-01-30T14:24:32;22.40;62.50
8002;DHT22;4046;48.774;8.732;2024-01-30T14:27:16;22.10;62.10
8002;DHT22;4046;48.774;8.732;2024-01-30T14:30:13;22.20;62.30
8002;DHT22;4046;48.774;8.732;2024-01-30T14:33:00;22.10;62.20
8002;DHT22;4046;48.774;8.732;2024-01-30T14:35:34;22.10;62.20
8002;DHT22;4046;48.774;8.732;2024-01-30T14:38:22;22.10;62.30
8002;DHT22;4046;48.774;8.732;2024-01-30T14:40:48;22.00;62.30
8002;DHT22;4046;48.774;8.732;2024-01-30T14:43:26;22.10;62.30
8002;DHT22;4046;48.774;8.732;2024-01-30T14:45:58;22.10;62.30
8002;DHT22;4046;48.774;8.732;2024-01-30T14:48:27;22.10;62.40
8002;DHT22;4046;48.774;8.732;2024-01-30T14:50:56;22.10;62.40
8002;DHT22;4046;48.774;8.732;2024-01-30T14:53:34;22.10;62.40
8002;DHT22;4046;48.774;8.732;2024-01-30T14:56:28;22.10;62.30
8002;DHT22;4046;48.774;8.732;2024-01-30T14:59:06;22.10;62.30
8002;DHT22;4046;48.774;8.732;2024-01-30T15:01:41;22.10;62.40
8002;DHT22;4046;48.774;8.732;2024-01-30T15:04:22;22.00;62.30
8002;DHT22;4046;48.774;8.732;2024-01-30T15:07:01;22.00;62.30
8002;DHT22;4046;48.774;8.732;2024-01-30T15:09:30;22.00;62.30
8002;DHT22;4046;48.774;8.732;2024-01-30T15:12:14;22.00;62.30
8002;DHT22;4046;48.774;8.732;2024-01-30T15:14:40;22.00;62.40
8002;DHT22;4046;48.774;8.732;2024-01-30T15:17:06;22.00;62.30
8002;DHT22;4046;48.774;8.732;2024-01-30T15:19:32;22.00;62.40
8002;DHT22;4046;48.774;8.732;2024-01-30T15:22:24;22.00;62.30
8002;DHT22;4046;48.774;8.732;2024-01-30T15:24:59;22.00;62.30
8002;DHT22;4046;48.774;8.732;2024-01-30T15:27:27;22.00;62.40
8002;DHT22;4046;48.774;8.732;2024-01-30T15:29:52;22.00;62.50
8002;DHT22;4046;48.774;8.732;2024-01-30T15:32:33;22.00;62.40
8002;DHT22;4046;48.774;8.732;2024-01-30T15:35:03;22.00;62.40
8002;DHT22;4046;48.774;8.732;2024-01-30T15:37:43;22.00;62.40
8002;DHT22;4046;48.774;8.732;2024-01-30T15:40:12;22.00;62.40
8002;DHT22;4046;48.774;8.732;2024-01-30T15:42:38;22.00;62.40
8002;DHT22;4046;48.774;8.732;2024-01-30T15:45:13;22.00;62.50
8002;DHT22;4046;48.774;8.732;2024-01-30T15:47:39;22.00;62.50
8002;DHT22;4046;48.774;8.732;2024-01-30T15:50:05;22.00;62.40
8002;DHT22;4046;48.774;8.732;2024-01-30T15:52:32;22.00;62.40
8002;DHT22;4046;48.774;8.732;2024-01-30T15:55:33;22.00;62.40
8002;DHT22;4046;48.774;8.732;2024-01-30T15:58:06;22.30;62.80
8002;DHT22;4046;48.774;8.732;2024-01-30T16:00:44;22.00;62.50
8002;DHT22;4046;48.774;8.732;2024-01-30T16:03:09;22.00;62.50
8002;DHT22;4046;48.774;8.732;2024-01-30T16:06:02;22.00;62.50
8002;DHT22;4046;48.774;8.732;2024-01-30T16:08:51;22.20;62.80
8002;DHT22;4046;48.774;8.732;2024-01-30T16:11:23;22.00;62.50
8002;DHT22;4046;48.774;8.732;2024-01-30T16:13:59;22.00;62.50
8002;DHT22;4046;48.774;8.732;2024-01-30T16:16:28;22.00;62.50
8002;DHT22;4046;48.774;8.732;2024-01-30T16:19:15;22.00;62.50
8002;DHT22;4046;48.774;8.732;2024-01-30T16:21:44;22.00;62.50
8002;DHT22;4046;48.774;8.732;2024-01-30T16:24:14;22.00;62.60
8002;DHT22;4046;48.774;8.732;2024-01-30T16:29:45;22.00;62.60
8002;DHT22;4046;48.774;8.732;2024-01-30T16:32:28;22.00;62.60
8002;DHT22;4046;48.774;8.732;2024-01-30T16:35:23;22.00;62.50
8002;DHT22;4046;48.774;8.732;2024-01-30T16:43:23;22.00;62.60
8002;DHT22;4046;48.774;8.732;2024-01-30T16:46:07;22.00;62.60
8002;DHT22;4046;48.774;8.732;2024-01-30T16:48:34;22.00;62.60
8002;DHT22;4046;48.774;8.732;2024-01-30T16:51:00;22.00;62.60
8002;DHT22;4046;48.774;8.732;2024-01-30T16:53:26;22.00;62.60
8002;DHT22;4046;48.774;8.732;2024-01-30T16:55:55;22.00;62.70
8002;DHT22;4046;48.774;8.732;2024-01-30T16:58:37;22.00;62.60
8002;DHT22;4046;48.774;8.732;2024-01-30T17:01:03;22.00;62.60
8002;DHT22;4046;48.774;8.732;2024-01-30T17:03:29;21.90;62.80
8002;DHT22;4046;48.774;8.732;2024-01-30T17:05:55;21.90;62.90
8002;DHT22;4046;48.774;8.732;2024-01-30T17:11:21;21.90;63.00
8002;DHT22;4046;48.774;8.732;2024-01-30T17:14:04;22.00;63.00
8002;DHT22;4046;48.774;8.732;2024-01-30T17:16:48;22.10;63.00
8002;DHT22;4046;48.774;8.732;2024-01-30T17:19:27;22.10;62.80
8002;DHT22;4046;48.774;8.732;2024-01-30T17:22:42;22.20;62.90
8002;DHT22;4046;48.774;8.732;2024-01-30T17:25:22;22.30;62.90
8002;DHT22;4046;48.774;8.732;2024-01-30T17:28:10;22.30;62.80
8002;DHT22;4046;48.774;8.732;2024-01-30T17:30:45;22.30;62.80
8002;DHT22;4046;48.774;8.732;2024-01-30T17:33:14;22.40;62.80
8002;DHT22;4046;48.774;8.732;2024-01-30T17:35:46;22.40;62.70
8002;DHT22;4046;48.774;8.732;2024-01-30T17:38:40;22.40;62.70
8002;DHT22;4046;48.774;8.732;2024-01-30T17:41:44;22.50;62.70
8002;DHT22;4046;48.774;8.732;2024-01-30T17:44:16;22.50;62.70
8002;DHT22;4046;48.774;8.732;2024-01-30T17:50:09;22.50;62.60
8002;DHT22;4046;48.774;8.732;2024-01-30T17:52:35;22.60;62.70
8002;DHT22;4046;48.774;8.732;2024-01-30T17:55:36;22.60;62.70
8002;DHT22;4046;48.774;8.732;2024-01-30T17:58:29;22.60;62.70
8002;DHT22;4046;48.774;8.732;2024-01-30T18:01:10;22.60;62.70
8002;DHT22;4046;48.774;8.732;2024-01-30T18:03:36;22.60;62.70
8002;DHT22;4046;48.774;8.732;2024-01-30T18:06:03;22.60;62.70
8002;DHT22;4046;48.774;8.732;2024-01-30T18:08:32;22.60;62.60
8002;DHT22;4046;48.774;8.732;2024-01-30T18:11:13;22.60;62.70
8002;DHT22;4046;48.774;8.732;2024-01-30T18:13:39;22.60;62.90
8002;DHT22;4046;48.774;8.732;2024-01-30T18:16:11;22.60;62.90
8002;DHT22;4046;48.774;8.732;2024-01-30T18:18:56;22.60;63.40
8002;DHT22;4046;48.774;8.732;2024-01-30T18:21:27;22.60;63.80
8002;DHT22;4046;48.774;8.732;2024-01-30T18:24:27;22.90;63.90
8002;DHT22;4046;48.774;8.732;2024-01-30T18:27:25;22.60;63.30
8002;DHT22;4046;48.774;8.732;2024-01-30T18:29:51;22.60;63.30
8002;DHT22;4046;48.774;8.732;2024-01-30T18:35:51;22.70;63.20
8002;DHT22;4046;48.774;8.732;2024-01-30T18:38:24;22.60;63.40
8002;DHT22;4046;48.774;8.732;2024-01-30T18:40:53;22.60;63.30
8002;DHT22;4046;48.774;8.732;2024-01-30T18:43:22;22.60;63.30
8002;DHT22;4046;48.774;8.732;2024-01-30T18:45:53;22.70;63.30
8002;DHT22;4046;48.774;8.732;2024-01-30T18:48:54;22.70;63.30
8002;DHT22;4046;48.774;8.732;2024-01-30T18:55:00;22.70;63.20
8002;DHT22;4046;48.774;8.732;2024-01-30T19:01:22;22.70;63.20
8002;DHT22;4046;48.774;8.732;2024-01-30T19:03:51;22.70;63.20
8002;DHT22;4046;48.774;8.732;2024-01-30T19:06:39;22.70;63.20
8002;DHT22;4046;48.774;8.732;2024-01-30T19:09:34;22.70;63.20
8002;DHT22;4046;48.774;8.732;2024-01-30T19:12:03;22.70;63.30
8002;DHT22;4046;48.774;8.732;2024-01-30T19:14:30;22.70;63.20
8002;DHT22;4046;48.774;8.732;2024-01-30T19:17:00;22.70;63.20
8002;DHT22;4046;48.774;8.732;2024-01-30T19:19:35;22.70;63.20
8002;DHT22;4046;48.774;8.732;2024-01-30T19:22:07;22.70;63.20
8002;DHT22;4046;48.774;8.732;2024-01-30T19:24:37;22.70;63.20
8002;DHT22;4046;48.774;8.732;2024-01-30T19:27:06;22.70;63.10
8002;DHT22;4046;48.774;8.732;2024-01-30T19:29:37;22.70;63.10
8002;DHT22;4046;48.774;8.732;2024-01-30T19:32:08;22.70;63.20
8002;DHT22;4046;48.774;8.732;2024-01-30T19:34:40;22.70;63.20
8002;DHT22;4046;48.774;8.732;2024-01-30T19:40:38;22.70;63.10
8002;DHT22;4046;48.774;8.732;2024-01-30T19:43:43;22.70;63.20
8002;DHT22;4046;48.774;8.732;2024-01-30T19:47:13;22.70;63.10
8002;DHT22;4046;48.774;8.732;2024-01-30T19:49:54;22.70;63.20
8002;DHT22;4046;48.774;8.732;2024-01-30T19:52:29;22.70;63.20
8002;DHT22;4046;48.774;8.732;2024-01-30T19:55:07;22.70;63.20
8002;DHT22;4046;48.774;8.732;2024-01-30T19:57:40;22.70;63.20
8002;DHT22;4046;48.774;8.732;2024-01-30T20:00:15;22.70;63.20
8002;DHT22;4046;48.774;8.732;2024-01-30T20:03:02;22.70;63.20
8002;DHT22;4046;48.774;8.732;2024-01-30T20:05:31;22.70;63.20
8002;DHT22;4046;48.774;8.732;2024-01-30T20:08:03;22.70;63.20
8002;DHT22;4046;48.774;8.732;2024-01-30T20:10:31;22.70;63.20
8002;DHT22;4046;48.774;8.732;2024-01-30T20:13:33;22.70;63.20
8002;DHT22;4046;48.774;8.732;2024-01-30T20:16:06;22.70;63.20
8002;DHT22;4046;48.774;8.732;2024-01-30T20:22:15;22.70;63.20
8002;DHT22;4046;48.774;8.732;2024-01-30T20:25:05;22.70;63.30
8002;DHT22;4046;48.774;8.732;2024-01-30T20:31:04;22.70;63.30
8002;DHT22;4046;48.774;8.732;2024-01-30T20:33:57;22.70;63.30
8002;DHT22;4046;48.774;8.732;2024-01-30T20:36:45;22.70;63.30
8002;DHT22;4046;48.774;8.732;2024-01-30T20:39:35;22.70;63.30
8002;DHT22;4046;48.774;8.732;2024-01-30T20:42:07;22.70;63.30
8002;DHT22;4046;48.774;8.732;2024-01-30T20:44:36;22.70;63.30
8002;DHT22;4046;48.774;8.732;2024-01-30T20:50:17;22.70;63.30
8002;DHT22;4046;48.774;8.732;2024-01-30T20:52:46;22.70;63.30
8002;DHT22;4046;48.774;8.732;2024-01-30T20:58:20;22.70;63.30
8002;DHT22;4046;48.774;8.732;2024-01-30T21:01:23;22.70;63.30
8002;DHT22;4046;48.774;8.732;2024-01-30T21:04:34;22.70;63.30
8002;DHT22;4046;48.774;8.732;2024-01-30T21:07:25;22.70;63.20
8002;DHT22;4046;48.774;8.732;2024-01-30T21:10:50;22.70;63.30
8002;DHT22;4046;48.774;8.732;2024-01-30T21:14:04;22.70;63.30
8002;DHT22;4046;48.774;8.732;2024-01-30T21:16:45;22.70;63.30
8002;DHT22;4046;48.774;8.732;2024-01-30T21:19:53;22.70;63.30
8002;DHT22;4046;48.774;8.732;2024-01-30T21:22:22;22.70;63.30
8002;DHT22;4046;48.774;8.732;2024-01-30T21:25:01;22.70;63.30
8002;DHT22;4046;48.774;8.732;2024-01-30T21:27:33;22.70;63.30
8002;DHT22;4046;48.774;8.732;2024-01-30T21:30:22;22.70;63.30
8002;DHT22;4046;48.774;8.732;2024-01-30T21:36:18;22.70;63.30
8002;DHT22;4046;48.774;8.732;2024-01-30T21:42:10;22.70;63.30
8002;DHT22;4046;48.774;8.732;2024-01-30T21:44:45;22.70;63.30
8002;DHT22;4046;48.774;8.732;2024-01-30T21:47:44;22.70;63.30
8002;DHT22;4046;48.774;8.732;2024-01-30T21:50:13;22.70;63.30
8002;DHT22;4046;48.774;8.732;2024-01-30T21:52:42;22.70;63.30
8002;DHT22;4046;48.774;8.732;2024-01-30T21:55:11;22.70;63.30